sensor_id;sensor_type;location;lat;lon;timestamp;P1;durP1;ratioP1;P2;durP2;ratioP2
6101;SDS011;3081;50.584;7.032;2022-07-05T00:01:15;12.87;;;3.00;;
6101;SDS011;3081;50.584;7.032;2022-07-05T00:03:42;12.00;;;2.87;;
6101;SDS011;3081;50.584;7.032;2022-07-05T00:06:09;14.53;;;2.90;;
6101;SDS011;3081;50.584;7.032;2022-07-05T00:08:36;14.03;;;2.93;;
6101;SDS011;3081;50.584;7.032;2022-07-05T00:11:05;11.80;;;3.33;;
6101;SDS011;3081;50.584;7.032;2022-07-05T00:13:32;11.03;;;2.90;;
6101;SDS011;3081;50.584;7.032;2022-07-05T00:16:00;12.87;;;3.20;;
6101;SDS011;3081;50.584;7.032;2022-07-05T00:18:27;11.60;;;3.10;;
6101;SDS011;3081;50.584;7.032;2022-07-05T00:20:54;12.50;;;3.13;;
6101;SDS011;3081;50.584;7.032;2022-07-05T00:23:21;15.03;;;3.70;;
6101;SDS011;3081;50.584;7.032;2022-07-05T00:25:48;12.97;;;3.93;;
6101;SDS011;3081;50.584;7.032;2022-07-05T00:28:15;14.33;;;4.30;;
6101;SDS011;3081;50.584;7.032;2022-07-05T00:30:42;13.37;;;3.90;;
6101;SDS011;3081;50.584;7.032;2022-07-05T00:33:10;14.40;;;4.50;;
6101;SDS011;3081;50.584;7.032;2022-07-05T00:35:37;18.57;;;4.73;;
6101;SDS011;3081;50.584;7.032;2022-07-05T00:38:04;12.50;;;3.93;;
6101;SDS011;3081;50.584;7.032;2022-07-05T00:40:32;11.83;;;4.20;;
6101;SDS011;3081;50.584;7.032;2022-07-05T00:42:59;12.00;;;4.13;;
6101;SDS011;3081;50.584;7.032;2022-07-05T00:45:26;14.27;;;4.40;;
6101;SDS011;3081;50.584;7.032;2022-07-05T00:47:53;12.57;;;4.20;;
6101;SDS011;3081;50.584;7.032;2022-07-05T00:50:21;17.93;;;4.20;;
6101;SDS011;3081;50.584;7.032;2022-07-05T00:52:48;12.50;;;4.87;;
6101;SDS011;3081;50.584;7.032;2022-07-05T00:55:19;14.40;;;4.13;;
6101;SDS011;3081;50.584;7.032;2022-07-05T00:57:46;13.13;;;4.43;;
6101;SDS011;3081;50.584;7.032;2022-07-05T01:00:13;21.63;;;5.17;;
6101;SDS011;3081;50.584;7.032;2022-07-05T01:02:40;15.87;;;4.87;;
6101;SDS011;3081;50.584;7.032;2022-07-05T01:05:07;13.90;;;4.83;;
6101;SDS011;3081;50.584;7.032;2022-07-05T01:07:35;14.97;;;5.53;;
6101;SDS011;3081;50.584;7.032;2022-07-05T01:10:03;16.20;;;4.87;;
6101;SDS011;3081;50.584;7.032;2022-07-05T01:12:30;16.67;;;5.40;;
6101;SDS011;3081;50.584;7.032;2022-07-05T01:14:57;14.23;;;4.83;;
6101;SDS011;3081;50.584;7.032;2022-07-05T01:17:25;15.30;;;5.43;;
6101;SDS011;3081;50.584;7.032;2022-07-05T01:19:52;12.93;;;5.23;;
6101;SDS011;3081;50.584;7.032;2022-07-05T01:22:20;17.00;;;5.77;;
6101;SDS011;3081;50.584;7.032;2022-07-05T01:24:52;16.17;;;6.10;;
6101;SDS011;3081;50.584;7.032;2022-07-05T01:27:19;13.70;;;5.93;;
6101;SDS011;3081;50.584;7.032;2022-07-05T01:29:47;18.33;;;5.70;;
6101;SDS011;3081;50.584;7.032;2022-07-05T01:32:14;13.80;;;5.50;;
6101;SDS011;3081;50.584;7.032;2022-07-05T01:34:41;14.80;;;5.60;;
6101;SDS011;3081;50.584;7.032;2022-07-05T01:37:09;16.30;;;5.50;;
6101;SDS011;3081;50.584;7.032;2022-07-05T01:39:37;13.70;;;4.97;;
6101;SDS011;3081;50.584;7.032;2022-07-05T01:42:06;15.40;;;5.50;;
6101;SDS011;3081;50.584;7.032;2022-07-05T01:44:33;13.30;;;4.70;;
6101;SDS011;3081;50.584;7.032;2022-07-05T01:47:02;13.93;;;5.50;;
6101;SDS011;3081;50.584;7.032;2022-07-05T01:49:34;18.53;;;6.10;;
6101;SDS011;3081;50.584;7.032;2022-07-05T01:52:07;14.03;;;5.43;;
6101;SDS011;3081;50.584;7.032;2022-07-05T01:54:35;14.30;;;6.03;;
6101;SDS011;3081;50.584;7.032;2022-07-05T01:57:03;20.53;;;6.80;;
6101;SDS011;3081;50.584;7.032;2022-07-05T01:59:32;14.90;;;6.43;;
6101;SDS011;3081;50.584;7.032;2022-07-05T02:02:00;12.70;;;5.33;;
6101;SDS011;3081;50.584;7.032;2022-07-05T02:04:28;15.57;;;5.73;;
6101;SDS011;3081;50.584;7.032;2022-07-05T02:06:55;13.20;;;5.90;;
6101;SDS011;3081;50.584;7.032;2022-07-05T02:09:23;13.50;;;6.40;;
6101;SDS011;3081;50.584;7.032;2022-07-05T02:11:50;14.30;;;5.90;;
6101;SDS011;3081;50.584;7.032;2022-07-05T02:14:19;15.77;;;6.20;;
6101;SDS011;3081;50.584;7.032;2022-07-05T02:16:46;15.43;;;6.20;;
6101;SDS011;3081;50.584;7.032;2022-07-05T02:19:13;16.10;;;6.00;;
6101;SDS011;3081;50.584;7.032;2022-07-05T02:21:40;16.23;;;6.53;;
6101;SDS011;3081;50.584;7.032;2022-07-05T02:24:07;15.13;;;6.10;;
6101;SDS011;3081;50.584;7.032;2022-07-05T02:26:34;15.30;;;6.60;;
6101;SDS011;3081;50.584;7.032;2022-07-05T02:29:02;15.37;;;6.33;;
6101;SDS011;3081;50.584;7.032;2022-07-05T02:31:31;13.97;;;6.37;;
6101;SDS011;3081;50.584;7.032;2022-07-05T02:33:59;13.50;;;5.87;;
6101;SDS011;3081;50.584;7.032;2022-07-05T02:36:26;14.83;;;6.50;;
6101;SDS011;3081;50.584;7.032;2022-07-05T02:38:53;13.70;;;6.40;;
6101;SDS011;3081;50.584;7.032;2022-07-05T02:41:20;14.37;;;6.40;;
6101;SDS011;3081;50.584;7.032;2022-07-05T02:43:47;14.07;;;6.03;;
6101;SDS011;3081;50.584;7.032;2022-07-05T02:46:14;13.80;;;6.50;;
6101;SDS011;3081;50.584;7.032;2022-07-05T02:48:42;13.37;;;5.97;;
6101;SDS011;3081;50.584;7.032;2022-07-05T02:51:09;15.43;;;6.63;;
6101;SDS011;3081;50.584;7.032;2022-07-05T02:53:36;17.40;;;7.10;;
6101;SDS011;3081;50.584;7.032;2022-07-05T02:56:03;15.40;;;6.47;;
6101;SDS011;3081;50.584;7.032;2022-07-05T02:58:30;16.43;;;6.80;;
6101;SDS011;3081;50.584;7.032;2022-07-05T03:00:57;17.27;;;6.67;;
6101;SDS011;3081;50.584;7.032;2022-07-05T03:03:24;17.70;;;7.13;;
6101;SDS011;3081;50.584;7.032;2022-07-05T03:05:53;13.67;;;6.80;;
6101;SDS011;3081;50.584;7.032;2022-07-05T03:08:20;16.00;;;7.10;;
6101;SDS011;3081;50.584;7.032;2022-07-05T03:10:47;13.60;;;6.63;;
6101;SDS011;3081;50.584;7.032;2022-07-05T03:13:14;17.37;;;7.70;;
6101;SDS011;3081;50.584;7.032;2022-07-05T03:15:41;13.93;;;6.60;;
6101;SDS011;3081;50.584;7.032;2022-07-05T03:18:08;14.10;;;6.63;;
6101;SDS011;3081;50.584;7.032;2022-07-05T03:20:35;14.87;;;6.87;;
6101;SDS011;3081;50.584;7.032;2022-07-05T03:23:04;14.43;;;6.87;;
6101;SDS011;3081;50.584;7.032;2022-07-05T03:25:31;16.27;;;7.27;;
6101;SDS011;3081;50.584;7.032;2022-07-05T03:27:58;16.70;;;6.70;;
6101;SDS011;3081;50.584;7.032;2022-07-05T03:30:25;14.97;;;7.17;;
6101;SDS011;3081;50.584;7.032;2022-07-05T03:32:52;16.65;;;7.43;;
6101;SDS011;3081;50.584;7.032;2022-07-05T03:35:19;12.30;;;6.70;;
6101;SDS011;3081;50.584;7.032;2022-07-05T03:37:46;14.30;;;7.00;;
6101;SDS011;3081;50.584;7.032;2022-07-05T03:40:14;13.30;;;6.67;;
6101;SDS011;3081;50.584;7.032;2022-07-05T03:42:41;15.17;;;7.60;;
6101;SDS011;3081;50.584;7.032;2022-07-05T03:45:08;16.60;;;6.67;;
6101;SDS011;3081;50.584;7.032;2022-07-05T03:47:36;14.63;;;6.73;;
6101;SDS011;3081;50.584;7.032;2022-07-05T03:50:03;17.07;;;6.73;;
6101;SDS011;3081;50.584;7.032;2022-07-05T03:52:31;13.60;;;5.70;;
6101;SDS011;3081;50.584;7.032;2022-07-05T03:54:58;13.43;;;6.80;;
6101;SDS011;3081;50.584;7.032;2022-07-05T03:57:26;12.87;;;6.43;;
6101;SDS011;3081;50.584;7.032;2022-07-05T03:59:54;15.00;;;6.07;;
6101;SDS011;3081;50.584;7.032;2022-07-05T04:02:21;14.43;;;6.63;;
6101;SDS011;3081;50.584;7.032;2022-07-05T04:04:48;13.20;;;6.40;;
6101;SDS011;3081;50.584;7.032;2022-07-05T04:07:15;12.93;;;6.43;;
6101;SDS011;3081;50.584;7.032;2022-07-05T04:09:42;15.03;;;6.63;;
6101;SDS011;3081;50.584;7.032;2022-07-05T04:12:09;12.83;;;5.67;;
6101;SDS011;3081;50.584;7.032;2022-07-05T04:14:41;12.77;;;6.30;;
6101;SDS011;3081;50.584;7.032;2022-07-05T04:17:08;14.50;;;6.20;;
6101;SDS011;3081;50.584;7.032;2022-07-05T04:19:35;14.20;;;6.20;;
6101;SDS011;3081;50.584;7.032;2022-07-05T04:22:02;13.80;;;5.70;;
6101;SDS011;3081;50.584;7.032;2022-07-05T04:24:29;12.80;;;5.23;;
6101;SDS011;3081;50.584;7.032;2022-07-05T04:26:56;15.30;;;6.67;;
6101;SDS011;3081;50.584;7.032;2022-07-05T04:29:23;18.60;;;5.90;;
6101;SDS011;3081;50.584;7.032;2022-07-05T04:31:51;14.13;;;5.97;;
6101;SDS011;3081;50.584;7.032;2022-07-05T04:34:18;14.30;;;6.30;;
6101;SDS011;3081;50.584;7.032;2022-07-05T04:36:45;14.03;;;5.90;;
6101;SDS011;3081;50.584;7.032;2022-07-05T04:39:12;13.67;;;5.47;;
6101;SDS011;3081;50.584;7.032;2022-07-05T04:41:39;10.83;;;4.80;;
6101;SDS011;3081;50.584;7.032;2022-07-05T04:44:06;17.20;;;6.67;;
6101;SDS011;3081;50.584;7.032;2022-07-05T04:46:33;13.87;;;5.93;;
6101;SDS011;3081;50.584;7.032;2022-07-05T04:49:01;13.17;;;5.00;;
6101;SDS011;3081;50.584;7.032;2022-07-05T04:51:28;16.30;;;6.00;;
6101;SDS011;3081;50.584;7.032;2022-07-05T04:53:55;14.50;;;5.17;;
6101;SDS011;3081;50.584;7.032;2022-07-05T04:56:22;14.30;;;6.43;;
6101;SDS011;3081;50.584;7.032;2022-07-05T04:58:49;12.90;;;5.80;;
6101;SDS011;3081;50.584;7.032;2022-07-05T05:01:16;15.38;;;6.10;;
6101;SDS011;3081;50.584;7.032;2022-07-05T05:03:43;14.30;;;5.13;;
6101;SDS011;3081;50.584;7.032;2022-07-05T05:06:11;12.60;;;5.10;;
6101;SDS011;3081;50.584;7.032;2022-07-05T05:08:39;14.63;;;5.90;;
6101;SDS011;3081;50.584;7.032;2022-07-05T05:11:06;15.17;;;5.90;;
6101;SDS011;3081;50.584;7.032;2022-07-05T05:13:33;14.40;;;5.40;;
6101;SDS011;3081;50.584;7.032;2022-07-05T05:16:01;15.20;;;5.63;;
6101;SDS011;3081;50.584;7.032;2022-07-05T05:18:28;16.60;;;6.10;;
6101;SDS011;3081;50.584;7.032;2022-07-05T05:20:55;14.80;;;6.00;;
6101;SDS011;3081;50.584;7.032;2022-07-05T05:23:24;15.07;;;6.00;;
6101;SDS011;3081;50.584;7.032;2022-07-05T05:25:51;17.73;;;7.10;;
6101;SDS011;3081;50.584;7.032;2022-07-05T05:28:18;20.10;;;8.10;;
6101;SDS011;3081;50.584;7.032;2022-07-05T05:30:44;15.57;;;7.70;;
6101;SDS011;3081;50.584;7.032;2022-07-05T05:33:12;15.73;;;8.13;;
6101;SDS011;3081;50.584;7.032;2022-07-05T05:35:39;18.40;;;8.90;;
6101;SDS011;3081;50.584;7.032;2022-07-05T05:38:06;24.10;;;8.60;;
6101;SDS011;3081;50.584;7.032;2022-07-05T05:40:34;17.73;;;8.90;;
6101;SDS011;3081;50.584;7.032;2022-07-05T05:43:02;18.67;;;8.63;;
6101;SDS011;3081;50.584;7.032;2022-07-05T05:45:30;17.00;;;8.43;;
6101;SDS011;3081;50.584;7.032;2022-07-05T05:47:57;23.67;;;8.27;;
6101;SDS011;3081;50.584;7.032;2022-07-05T05:50:26;22.30;;;8.73;;
6101;SDS011;3081;50.584;7.032;2022-07-05T05:52:55;16.57;;;7.47;;
6101;SDS011;3081;50.584;7.032;2022-07-05T05:55:22;20.30;;;8.40;;
6101;SDS011;3081;50.584;7.032;2022-07-05T05:57:52;21.80;;;9.70;;
6101;SDS011;3081;50.584;7.032;2022-07-05T06:00:20;17.67;;;8.00;;
6101;SDS011;3081;50.584;7.032;2022-07-05T06:02:48;18.20;;;9.00;;
6101;SDS011;3081;50.584;7.032;2022-07-05T06:05:16;18.20;;;8.73;;
6101;SDS011;3081;50.584;7.032;2022-07-05T06:07:44;19.77;;;9.47;;
6101;SDS011;3081;50.584;7.032;2022-07-05T06:10:14;18.43;;;8.27;;
6101;SDS011;3081;50.584;7.032;2022-07-05T06:12:42;19.33;;;8.80;;
6101;SDS011;3081;50.584;7.032;2022-07-05T06:15:10;19.70;;;8.30;;
6101;SDS011;3081;50.584;7.032;2022-07-05T06:17:38;19.83;;;8.37;;
6101;SDS011;3081;50.584;7.032;2022-07-05T06:20:06;17.90;;;8.83;;
6101;SDS011;3081;50.584;7.032;2022-07-05T06:22:34;18.73;;;8.77;;
6101;SDS011;3081;50.584;7.032;2022-07-05T06:25:01;18.17;;;7.70;;
6101;SDS011;3081;50.584;7.032;2022-07-05T06:27:28;20.27;;;8.50;;
6101;SDS011;3081;50.584;7.032;2022-07-05T06:29:55;17.60;;;8.30;;
6101;SDS011;3081;50.584;7.032;2022-07-05T06:32:24;18.20;;;7.20;;
6101;SDS011;3081;50.584;7.032;2022-07-05T06:34:51;19.80;;;7.10;;
6101;SDS011;3081;50.584;7.032;2022-07-05T06:37:18;16.97;;;6.80;;
6101;SDS011;3081;50.584;7.032;2022-07-05T06:39:45;19.63;;;8.30;;
6101;SDS011;3081;50.584;7.032;2022-07-05T06:42:12;21.30;;;7.70;;
6101;SDS011;3081;50.584;7.032;2022-07-05T06:44:39;16.40;;;8.10;;
6101;SDS011;3081;50.584;7.032;2022-07-05T06:47:06;19.00;;;8.17;;
6101;SDS011;3081;50.584;7.032;2022-07-05T06:49:35;20.77;;;7.70;;
6101;SDS011;3081;50.584;7.032;2022-07-05T06:52:02;15.27;;;6.50;;
6101;SDS011;3081;50.584;7.032;2022-07-05T06:54:29;18.50;;;8.40;;
6101;SDS011;3081;50.584;7.032;2022-07-05T06:56:56;18.73;;;8.60;;
6101;SDS011;3081;50.584;7.032;2022-07-05T06:59:23;17.93;;;7.37;;
6101;SDS011;3081;50.584;7.032;2022-07-05T07:01:50;17.40;;;8.03;;
6101;SDS011;3081;50.584;7.032;2022-07-05T07:04:17;20.70;;;8.23;;
6101;SDS011;3081;50.584;7.032;2022-07-05T07:06:45;16.37;;;7.83;;
6101;SDS011;3081;50.584;7.032;2022-07-05T07:09:12;33.33;;;8.40;;
6101;SDS011;3081;50.584;7.032;2022-07-05T07:11:45;20.00;;;7.40;;
6101;SDS011;3081;50.584;7.032;2022-07-05T07:14:13;19.53;;;8.70;;
6101;SDS011;3081;50.584;7.032;2022-07-05T07:16:40;21.57;;;8.93;;
6101;SDS011;3081;50.584;7.032;2022-07-05T07:19:07;20.60;;;7.50;;
6101;SDS011;3081;50.584;7.032;2022-07-05T07:21:34;22.00;;;7.90;;
6101;SDS011;3081;50.584;7.032;2022-07-05T07:24:03;16.70;;;7.27;;
6101;SDS011;3081;50.584;7.032;2022-07-05T07:26:30;22.17;;;7.30;;
6101;SDS011;3081;50.584;7.032;2022-07-05T07:29:18;18.83;;;7.90;;
6101;SDS011;3081;50.584;7.032;2022-07-05T07:31:45;19.07;;;7.90;;
6101;SDS011;3081;50.584;7.032;2022-07-05T07:34:12;19.30;;;7.47;;
6101;SDS011;3081;50.584;7.032;2022-07-05T07:36:39;17.57;;;7.70;;
6101;SDS011;3081;50.584;7.032;2022-07-05T07:39:08;18.57;;;8.47;;
6101;SDS011;3081;50.584;7.032;2022-07-05T07:41:35;18.07;;;8.33;;
6101;SDS011;3081;50.584;7.032;2022-07-05T07:44:02;17.20;;;7.70;;
6101;SDS011;3081;50.584;7.032;2022-07-05T07:46:29;17.53;;;7.33;;
6101;SDS011;3081;50.584;7.032;2022-07-05T07:48:56;17.83;;;6.73;;
6101;SDS011;3081;50.584;7.032;2022-07-05T07:51:23;19.83;;;7.23;;
6101;SDS011;3081;50.584;7.032;2022-07-05T07:53:50;18.23;;;8.03;;
6101;SDS011;3081;50.584;7.032;2022-07-05T07:56:19;25.53;;;6.90;;
6101;SDS011;3081;50.584;7.032;2022-07-05T07:58:46;23.17;;;9.20;;
6101;SDS011;3081;50.584;7.032;2022-07-05T08:01:14;17.57;;;6.70;;
6101;SDS011;3081;50.584;7.032;2022-07-05T08:03:41;16.37;;;6.07;;
6101;SDS011;3081;50.584;7.032;2022-07-05T08:06:08;14.83;;;5.70;;
6101;SDS011;3081;50.584;7.032;2022-07-05T08:08:36;18.50;;;6.63;;
6101;SDS011;3081;50.584;7.032;2022-07-05T08:11:04;21.93;;;6.53;;
6101;SDS011;3081;50.584;7.032;2022-07-05T08:13:33;15.70;;;5.73;;
6101;SDS011;3081;50.584;7.032;2022-07-05T08:16:00;16.60;;;5.93;;
6101;SDS011;3081;50.584;7.032;2022-07-05T08:18:27;16.90;;;6.40;;
6101;SDS011;3081;50.584;7.032;2022-07-05T08:21:13;17.23;;;5.83;;
6101;SDS011;3081;50.584;7.032;2022-07-05T08:24:00;20.33;;;5.83;;
6101;SDS011;3081;50.584;7.032;2022-07-05T08:26:29;15.27;;;5.83;;
6101;SDS011;3081;50.584;7.032;2022-07-05T08:28:57;17.17;;;5.87;;
6101;SDS011;3081;50.584;7.032;2022-07-05T08:31:26;15.03;;;5.10;;
6101;SDS011;3081;50.584;7.032;2022-07-05T08:33:54;14.30;;;5.40;;
6101;SDS011;3081;50.584;7.032;2022-07-05T08:36:21;17.80;;;6.30;;
6101;SDS011;3081;50.584;7.032;2022-07-05T08:38:48;19.80;;;5.73;;
6101;SDS011;3081;50.584;7.032;2022-07-05T08:41:16;21.57;;;5.33;;
6101;SDS011;3081;50.584;7.032;2022-07-05T08:43:44;14.50;;;5.43;;
6101;SDS011;3081;50.584;7.032;2022-07-05T08:46:14;15.37;;;5.30;;
6101;SDS011;3081;50.584;7.032;2022-07-05T08:48:42;13.80;;;5.07;;
6101;SDS011;3081;50.584;7.032;2022-07-05T08:51:10;21.33;;;5.50;;
6101;SDS011;3081;50.584;7.032;2022-07-05T08:53:39;20.37;;;4.90;;
6101;SDS011;3081;50.584;7.032;2022-07-05T08:56:07;14.70;;;5.43;;
6101;SDS011;3081;50.584;7.032;2022-07-05T08:58:34;18.53;;;6.70;;
6101;SDS011;3081;50.584;7.032;2022-07-05T09:01:02;16.83;;;5.37;;
6101;SDS011;3081;50.584;7.032;2022-07-05T09:03:31;21.40;;;6.00;;
6101;SDS011;3081;50.584;7.032;2022-07-05T09:06:00;14.67;;;4.60;;
6101;SDS011;3081;50.584;7.032;2022-07-05T09:08:29;16.80;;;5.03;;
6101;SDS011;3081;50.584;7.032;2022-07-05T09:10:59;17.97;;;6.17;;
6101;SDS011;3081;50.584;7.032;2022-07-05T09:13:27;17.40;;;5.73;;
6101;SDS011;3081;50.584;7.032;2022-07-05T09:15:54;15.07;;;5.60;;
6101;SDS011;3081;50.584;7.032;2022-07-05T09:21:13;20.33;;;5.37;;
6101;SDS011;3081;50.584;7.032;2022-07-05T09:23:41;17.13;;;6.60;;
6101;SDS011;3081;50.584;7.032;2022-07-05T09:26:08;13.97;;;5.10;;
6101;SDS011;3081;50.584;7.032;2022-07-05T09:28:35;16.93;;;5.73;;
6101;SDS011;3081;50.584;7.032;2022-07-05T09:31:02;13.57;;;4.37;;
6101;SDS011;3081;50.584;7.032;2022-07-05T09:33:30;14.77;;;4.70;;
6101;SDS011;3081;50.584;7.032;2022-07-05T09:35:58;14.50;;;4.43;;
6101;SDS011;3081;50.584;7.032;2022-07-05T09:38:26;12.33;;;3.50;;
6101;SDS011;3081;50.584;7.032;2022-07-05T09:40:54;13.20;;;4.10;;
6101;SDS011;3081;50.584;7.032;2022-07-05T09:43:23;15.70;;;3.90;;
6101;SDS011;3081;50.584;7.032;2022-07-05T09:45:52;11.63;;;3.57;;
6101;SDS011;3081;50.584;7.032;2022-07-05T09:48:20;17.70;;;3.70;;
6101;SDS011;3081;50.584;7.032;2022-07-05T09:50:48;13.63;;;3.10;;
6101;SDS011;3081;50.584;7.032;2022-07-05T09:53:17;11.47;;;3.67;;
6101;SDS011;3081;50.584;7.032;2022-07-05T09:55:59;13.00;;;3.70;;
6101;SDS011;3081;50.584;7.032;2022-07-05T09:58:27;84.23;;;13.80;;
6101;SDS011;3081;50.584;7.032;2022-07-05T10:00:54;283.90;;;40.93;;
6101;SDS011;3081;50.584;7.032;2022-07-05T10:03:22;14.07;;;3.37;;
6101;SDS011;3081;50.584;7.032;2022-07-05T10:05:49;12.70;;;3.20;;
6101;SDS011;3081;50.584;7.032;2022-07-05T10:08:16;14.20;;;3.00;;
6101;SDS011;3081;50.584;7.032;2022-07-05T10:10:46;12.50;;;3.37;;
6101;SDS011;3081;50.584;7.032;2022-07-05T10:13:15;15.33;;;3.93;;
6101;SDS011;3081;50.584;7.032;2022-07-05T10:15:42;11.00;;;2.70;;
6101;SDS011;3081;50.584;7.032;2022-07-05T10:18:12;12.23;;;3.00;;
6101;SDS011;3081;50.584;7.032;2022-07-05T10:20:44;13.00;;;2.80;;
6101;SDS011;3081;50.584;7.032;2022-07-05T10:23:12;12.17;;;2.80;;
6101;SDS011;3081;50.584;7.032;2022-07-05T10:25:42;11.27;;;2.60;;
6101;SDS011;3081;50.584;7.032;2022-07-05T10:28:09;12.83;;;3.47;;
6101;SDS011;3081;50.584;7.032;2022-07-05T10:30:37;11.73;;;3.00;;
6101;SDS011;3081;50.584;7.032;2022-07-05T10:33:04;12.10;;;3.27;;
6101;SDS011;3081;50.584;7.032;2022-07-05T10:35:33;13.80;;;2.87;;
6101;SDS011;3081;50.584;7.032;2022-07-05T10:38:01;10.70;;;2.80;;
6101;SDS011;3081;50.584;7.032;2022-07-05T10:40:30;10.23;;;2.40;;
6101;SDS011;3081;50.584;7.032;2022-07-05T10:43:00;14.20;;;3.77;;
6101;SDS011;3081;50.584;7.032;2022-07-05T10:45:29;13.83;;;2.50;;
6101;SDS011;3081;50.584;7.032;2022-07-05T10:48:13;14.33;;;2.73;;
6101;SDS011;3081;50.584;7.032;2022-07-05T10:50:44;11.53;;;2.40;;
6101;SDS011;3081;50.584;7.032;2022-07-05T10:53:13;10.17;;;2.20;;
6101;SDS011;3081;50.584;7.032;2022-07-05T10:55:47;10.50;;;2.50;;
6101;SDS011;3081;50.584;7.032;2022-07-05T10:58:31;11.50;;;2.40;;
6101;SDS011;3081;50.584;7.032;2022-07-05T11:04:26;10.60;;;1.90;;
6101;SDS011;3081;50.584;7.032;2022-07-05T11:06:57;9.27;;;1.80;;
6101;SDS011;3081;50.584;7.032;2022-07-05T11:09:25;10.70;;;2.00;;
6101;SDS011;3081;50.584;7.032;2022-07-05T11:12:03;9.33;;;2.10;;
6101;SDS011;3081;50.584;7.032;2022-07-05T11:14:34;12.03;;;2.53;;
6101;SDS011;3081;50.584;7.032;2022-07-05T11:17:17;9.77;;;1.70;;
6101;SDS011;3081;50.584;7.032;2022-07-05T11:19:58;10.40;;;2.20;;
6101;SDS011;3081;50.584;7.032;2022-07-05T11:22:26;12.17;;;2.30;;
6101;SDS011;3081;50.584;7.032;2022-07-05T11:24:53;12.70;;;2.10;;
6101;SDS011;3081;50.584;7.032;2022-07-05T11:27:22;52.50;;;9.60;;
6101;SDS011;3081;50.584;7.032;2022-07-05T11:29:50;10.67;;;1.93;;
6101;SDS011;3081;50.584;7.032;2022-07-05T11:32:19;10.70;;;2.20;;
6101;SDS011;3081;50.584;7.032;2022-07-05T11:34:48;11.47;;;3.10;;
6101;SDS011;3081;50.584;7.032;2022-07-05T11:37:20;14.60;;;2.17;;
6101;SDS011;3081;50.584;7.032;2022-07-05T11:42:49;8.33;;;1.77;;
6101;SDS011;3081;50.584;7.032;2022-07-05T11:45:18;10.50;;;2.07;;
6101;SDS011;3081;50.584;7.032;2022-07-05T11:47:45;14.23;;;2.40;;
6101;SDS011;3081;50.584;7.032;2022-07-05T11:50:12;10.80;;;1.90;;
6101;SDS011;3081;50.584;7.032;2022-07-05T11:52:39;9.63;;;1.67;;
6101;SDS011;3081;50.584;7.032;2022-07-05T11:55:08;12.17;;;2.20;;
6101;SDS011;3081;50.584;7.032;2022-07-05T11:57:36;11.80;;;2.17;;
6101;SDS011;3081;50.584;7.032;2022-07-05T12:00:04;14.33;;;2.40;;
6101;SDS011;3081;50.584;7.032;2022-07-05T12:02:37;9.77;;;1.63;;
6101;SDS011;3081;50.584;7.032;2022-07-05T12:05:09;10.10;;;1.47;;
6101;SDS011;3081;50.584;7.032;2022-07-05T12:07:36;14.10;;;1.50;;
6101;SDS011;3081;50.584;7.032;2022-07-05T12:10:05;10.37;;;1.93;;
6101;SDS011;3081;50.584;7.032;2022-07-05T12:12:50;8.40;;;2.00;;
6101;SDS011;3081;50.584;7.032;2022-07-05T12:15:18;11.43;;;3.00;;
6101;SDS011;3081;50.584;7.032;2022-07-05T12:17:48;10.80;;;1.70;;
6101;SDS011;3081;50.584;7.032;2022-07-05T12:20:20;10.90;;;2.00;;
6101;SDS011;3081;50.584;7.032;2022-07-05T12:22:48;9.43;;;1.90;;
6101;SDS011;3081;50.584;7.032;2022-07-05T12:25:16;10.33;;;1.87;;
6101;SDS011;3081;50.584;7.032;2022-07-05T12:27:44;10.00;;;2.13;;
6101;SDS011;3081;50.584;7.032;2022-07-05T12:30:14;22.53;;;2.80;;
6101;SDS011;3081;50.584;7.032;2022-07-05T12:32:58;10.17;;;2.10;;
6101;SDS011;3081;50.584;7.032;2022-07-05T12:35:27;10.70;;;2.07;;
6101;SDS011;3081;50.584;7.032;2022-07-05T12:38:01;12.73;;;2.33;;
6101;SDS011;3081;50.584;7.032;2022-07-05T12:40:33;12.97;;;2.10;;
6101;SDS011;3081;50.584;7.032;2022-07-05T12:43:01;12.93;;;1.88;;
6101;SDS011;3081;50.584;7.032;2022-07-05T12:45:33;13.73;;;2.30;;
6101;SDS011;3081;50.584;7.032;2022-07-05T12:48:02;9.20;;;1.70;;
6101;SDS011;3081;50.584;7.032;2022-07-05T12:50:42;9.67;;;2.37;;
6101;SDS011;3081;50.584;7.032;2022-07-05T12:53:11;13.07;;;1.87;;
6101;SDS011;3081;50.584;7.032;2022-07-05T12:55:59;11.00;;;1.47;;
6101;SDS011;3081;50.584;7.032;2022-07-05T12:58:49;8.30;;;1.67;;
6101;SDS011;3081;50.584;7.032;2022-07-05T13:01:23;9.40;;;1.40;;
6101;SDS011;3081;50.584;7.032;2022-07-05T13:04:00;7.70;;;1.20;;
6101;SDS011;3081;50.584;7.032;2022-07-05T13:06:41;10.93;;;1.90;;
6101;SDS011;3081;50.584;7.032;2022-07-05T13:09:10;11.57;;;1.70;;
6101;SDS011;3081;50.584;7.032;2022-07-05T13:11:38;15.23;;;2.20;;
6101;SDS011;3081;50.584;7.032;2022-07-05T13:14:05;10.30;;;1.90;;
6101;SDS011;3081;50.584;7.032;2022-07-05T13:16:32;18.93;;;2.00;;
6101;SDS011;3081;50.584;7.032;2022-07-05T13:19:07;9.40;;;1.60;;
6101;SDS011;3081;50.584;7.032;2022-07-05T13:21:35;9.00;;;2.00;;
6101;SDS011;3081;50.584;7.032;2022-07-05T13:24:02;10.70;;;1.87;;
6101;SDS011;3081;50.584;7.032;2022-07-05T13:26:30;7.80;;;1.60;;
6101;SDS011;3081;50.584;7.032;2022-07-05T13:28:57;7.43;;;1.30;;
6101;SDS011;3081;50.584;7.032;2022-07-05T13:31:24;7.20;;;1.40;;
6101;SDS011;3081;50.584;7.032;2022-07-05T13:33:53;7.13;;;1.10;;
6101;SDS011;3081;50.584;7.032;2022-07-05T13:36:22;14.50;;;1.60;;
6101;SDS011;3081;50.584;7.032;2022-07-05T13:38:49;7.40;;;1.40;;
6101;SDS011;3081;50.584;7.032;2022-07-05T13:41:16;8.30;;;1.43;;
6101;SDS011;3081;50.584;7.032;2022-07-05T13:43:43;9.37;;;1.70;;
6101;SDS011;3081;50.584;7.032;2022-07-05T13:46:10;13.83;;;1.90;;
6101;SDS011;3081;50.584;7.032;2022-07-05T13:48:37;13.80;;;2.10;;
6101;SDS011;3081;50.584;7.032;2022-07-05T13:51:05;9.10;;;2.00;;
6101;SDS011;3081;50.584;7.032;2022-07-05T13:53:33;10.90;;;1.70;;
6101;SDS011;3081;50.584;7.032;2022-07-05T13:56:01;18.67;;;2.43;;
6101;SDS011;3081;50.584;7.032;2022-07-05T13:58:29;15.07;;;1.97;;
6101;SDS011;3081;50.584;7.032;2022-07-05T14:00:56;15.43;;;2.30;;
6101;SDS011;3081;50.584;7.032;2022-07-05T14:03:23;10.20;;;1.70;;
6101;SDS011;3081;50.584;7.032;2022-07-05T14:05:51;8.20;;;1.67;;
6101;SDS011;3081;50.584;7.032;2022-07-05T14:08:18;14.13;;;2.30;;
6101;SDS011;3081;50.584;7.032;2022-07-05T14:10:48;11.20;;;1.93;;
6101;SDS011;3081;50.584;7.032;2022-07-05T14:13:16;10.40;;;1.63;;
6101;SDS011;3081;50.584;7.032;2022-07-05T14:15:44;6.80;;;1.50;;
6101;SDS011;3081;50.584;7.032;2022-07-05T14:18:12;7.80;;;1.20;;
6101;SDS011;3081;50.584;7.032;2022-07-05T14:20:40;9.50;;;1.30;;
6101;SDS011;3081;50.584;7.032;2022-07-05T14:23:07;6.77;;;1.00;;
6101;SDS011;3081;50.584;7.032;2022-07-05T14:25:34;27.47;;;3.40;;
6101;SDS011;3081;50.584;7.032;2022-07-05T14:28:04;10.60;;;1.97;;
6101;SDS011;3081;50.584;7.032;2022-07-05T14:30:32;10.00;;;1.50;;
6101;SDS011;3081;50.584;7.032;2022-07-05T14:33:00;11.30;;;1.63;;
6101;SDS011;3081;50.584;7.032;2022-07-05T14:35:27;8.90;;;1.60;;
6101;SDS011;3081;50.584;7.032;2022-07-05T14:37:55;10.07;;;1.97;;
6101;SDS011;3081;50.584;7.032;2022-07-05T14:40:22;12.60;;;1.80;;
6101;SDS011;3081;50.584;7.032;2022-07-05T14:42:49;11.77;;;1.67;;
6101;SDS011;3081;50.584;7.032;2022-07-05T14:45:18;24.83;;;2.33;;
6101;SDS011;3081;50.584;7.032;2022-07-05T14:47:45;8.13;;;1.20;;
6101;SDS011;3081;50.584;7.032;2022-07-05T14:50:13;9.53;;;1.30;;
6101;SDS011;3081;50.584;7.032;2022-07-05T14:52:41;10.23;;;1.03;;
6101;SDS011;3081;50.584;7.032;2022-07-05T14:55:08;6.57;;;1.00;;
6101;SDS011;3081;50.584;7.032;2022-07-05T14:57:35;8.20;;;1.10;;
6101;SDS011;3081;50.584;7.032;2022-07-05T15:00:03;6.23;;;1.10;;
6101;SDS011;3081;50.584;7.032;2022-07-05T15:02:33;5.87;;;1.00;;
6101;SDS011;3081;50.584;7.032;2022-07-05T15:05:01;7.30;;;1.73;;
6101;SDS011;3081;50.584;7.032;2022-07-05T15:07:29;5.40;;;1.10;;
6101;SDS011;3081;50.584;7.032;2022-07-05T15:09:56;4.07;;;0.80;;
6101;SDS011;3081;50.584;7.032;2022-07-05T15:12:23;4.18;;;0.70;;
6101;SDS011;3081;50.584;7.032;2022-07-05T15:14:50;7.32;;;0.90;;
6101;SDS011;3081;50.584;7.032;2022-07-05T15:17:17;4.00;;;0.90;;
6101;SDS011;3081;50.584;7.032;2022-07-05T15:19:45;4.93;;;1.02;;